Time;durP1;ratioP1;P1;durP2;ratioP2;P2;SDS_P1;SDS_P2;PMS_P1;PMS_P2;Temp;Humidity;BMP_temperature;BMP_pressure;BME280_temperature;BME280_humidity;BME280_pressure;Samples;Min_cycle;Max_cycle;Signal;HPM_P1;HPM_P2
2021/01/21 00:00:36;;;;;;;11.57;4.83;;;4.90;99.90;;;;;;4977948;28;20081;-69
2021/01/21 00:03:03;;;;;;;11.33;4.87;;;4.90;99.90;;;;;;4978682;28;20081;-69
2021/01/21 00:05:29;;;;;;;9.73;4.77;;;4.90;99.90;;;;;;4983154;28;20108;-69
2021/01/21 00:07:56;;;;;;;10.43;4.97;;;4.90;99.90;;;;;;4981998;28;20076;-69
2021/01/21 00:10:23;;;;;;;8.63;4.17;;;4.90;99.90;;;;;;4982759;28;20068;-71
2021/01/21 00:12:50;;;;;;;11.87;4.60;;;4.90;99.90;;;;;;4981914;28;20053;-69
2021/01/21 00:15:16;;;;;;;10.40;4.87;;;4.90;99.90;;;;;;4981598;28;20053;-68
2021/01/21 00:17:44;;;;;;;10.23;4.73;;;4.90;99.90;;;;;;4978468;28;20080;-71
2021/01/21 00:20:12;;;;;;;10.17;4.97;;;4.80;99.90;;;;;;4974152;28;20141;-69
2021/01/21 00:22:39;;;;;;;13.13;4.60;;;4.80;99.90;;;;;;4976448;28;20060;-71
2021/01/21 00:25:07;;;;;;;8.13;4.13;;;4.80;99.90;;;;;;4976956;28;20440;-65
2021/01/21 00:27:35;;;;;;;10.47;4.80;;;4.80;99.90;;;;;;4975140;28;20057;-66
2021/01/21 00:30:01;;;;;;;11.03;4.30;;;4.80;99.90;;;;;;4975727;28;20048;-65
2021/01/21 00:32:28;;;;;;;8.53;4.90;;;4.80;99.90;;;;;;4972575;28;20492;-66
2021/01/21 00:34:55;;;;;;;8.23;4.47;;;4.80;99.90;;;;;;4971335;28;20045;-66
2021/01/21 00:37:22;;;;;;;11.70;4.77;;;4.80;99.90;;;;;;4975448;28;20077;-67
2021/01/21 00:39:48;;;;;;;9.03;4.13;;;4.80;99.90;;;;;;4975571;28;20053;-66
2021/01/21 00:42:15;;;;;;;8.67;4.80;;;4.80;99.90;;;;;;4974156;28;20054;-65
2021/01/21 00:44:42;;;;;;;9.83;4.77;;;4.80;99.90;;;;;;4976161;28;20046;-65
2021/01/21 00:47:09;;;;;;;9.67;5.20;;;4.80;99.90;;;;;;4972962;28;20477;-69
2021/01/21 00:49:35;;;;;;;10.10;4.40;;;4.80;99.90;;;;;;4974094;28;20405;-67
2021/01/21 00:52:03;;;;;;;10.23;5.57;;;4.80;99.90;;;;;;4974605;28;20073;-67
2021/01/21 00:54:30;;;;;;;11.13;4.80;;;4.80;99.90;;;;;;4972027;28;20061;-65
2021/01/21 00:56:56;;;;;;;9.03;4.57;;;4.80;99.90;;;;;;4971575;28;20065;-65
2021/01/21 00:59:23;;;;;;;11.70;4.67;;;4.80;99.90;;;;;;4975134;28;20053;-67
2021/01/21 01:01:49;;;;;;;11.83;5.00;;;4.70;99.90;;;;;;4978853;28;20056;-67
2021/01/21 01:04:16;;;;;;;9.93;5.03;;;4.70;99.90;;;;;;4977515;28;20058;-69
2021/01/21 01:06:42;;;;;;;11.17;4.90;;;4.70;99.90;;;;;;4976076;28;20049;-66
2021/01/21 01:09:10;;;;;;;9.70;4.70;;;4.70;99.90;;;;;;4972022;28;20112;-69
2021/01/21 01:11:36;;;;;;;9.30;4.50;;;4.70;99.90;;;;;;4978354;28;20100;-66
2021/01/21 01:14:03;;;;;;;10.30;5.27;;;4.70;99.90;;;;;;4975833;28;20054;-65
2021/01/21 01:16:30;;;;;;;10.60;4.90;;;4.70;99.90;;;;;;4979009;28;20050;-66
2021/01/21 01:18:56;;;;;;;9.50;4.53;;;4.70;99.90;;;;;;4978255;28;21072;-67
2021/01/21 01:21:23;;;;;;;10.43;4.83;;;4.60;99.90;;;;;;4976316;28;20057;-64
2021/01/21 01:23:50;;;;;;;9.67;4.77;;;4.60;99.90;;;;;;4975831;28;20595;-66
2021/01/21 01:26:19;;;;;;;11.07;4.90;;;4.60;99.90;;;;;;4978517;28;20053;-69
2021/01/21 01:28:46;;;;;;;13.17;5.23;;;4.50;99.90;;;;;;4977956;28;20046;-70
2021/01/21 01:31:12;;;;;;;17.27;6.30;;;4.50;99.90;;;;;;4977731;28;20515;-66
2021/01/21 01:33:39;;;;;;;13.60;6.73;;;4.40;99.90;;;;;;4977999;28;20050;-69
2021/01/21 01:36:06;;;;;;;15.77;6.17;;;4.50;99.90;;;;;;4977389;28;20120;-70
2021/01/21 01:38:33;;;;;;;13.90;6.17;;;4.50;99.90;;;;;;4977657;28;20042;-70
2021/01/21 01:41:00;;;;;;;13.90;5.67;;;4.50;99.90;;;;;;4978272;28;21115;-67
2021/01/21 01:43:28;;;;;;;16.83;5.80;;;4.50;99.90;;;;;;4977573;28;20061;-69
2021/01/21 01:45:54;;;;;;;14.97;6.40;;;4.50;99.90;;;;;;4978683;28;20053;-66
2021/01/21 01:48:22;;;;;;;10.20;5.63;;;4.50;99.90;;;;;;4978629;28;20463;-71
2021/01/21 01:50:49;;;;;;;12.93;6.47;;;4.60;99.90;;;;;;4976345;28;20050;-69
2021/01/21 01:53:16;;;;;;;12.37;5.93;;;4.50;99.90;;;;;;4976804;28;20062;-70
2021/01/21 01:55:43;;;;;;;13.63;6.13;;;4.50;99.90;;;;;;4977988;28;20061;-69
2021/01/21 01:58:11;;;;;;;14.30;5.70;;;4.40;99.90;;;;;;4978085;28;20053;-71
2021/01/21 02:00:40;;;;;;;11.77;5.33;;;4.40;99.90;;;;;;4977822;28;20556;-70
2021/01/21 02:03:07;;;;;;;11.70;5.60;;;4.40;99.90;;;;;;4974982;28;20061;-71
2021/01/21 02:05:34;;;;;;;12.70;5.67;;;4.40;99.90;;;;;;4976708;28;20050;-66
2021/01/21 02:08:01;;;;;;;13.07;6.03;;;4.30;99.90;;;;;;4976369;28;20045;-65
2021/01/21 02:10:28;;;;;;;11.77;5.77;;;4.20;99.90;;;;;;4977360;28;20061;-65
2021/01/21 02:13:18;;;;;;;10.33;5.03;;;4.20;99.90;;;;;;4975087;28;20064;-68
2021/01/21 02:15:54;;;;;;;10.70;5.10;;;4.20;99.90;;;;;;4966594;28;20050;-68
2021/01/21 02:18:25;;;;;;;12.17;5.33;;;4.10;99.90;;;;;;4977501;28;20448;-70
2021/01/21 02:21:41;;;;;;;12.83;5.70;;;4.10;99.90;;;;;;4977097;28;20046;-66
2021/01/21 02:24:44;;;;;;;11.00;5.03;;;4.00;99.90;;;;;;4974807;28;20050;-65
2021/01/21 02:27:12;;;;;;;9.53;4.87;;;4.10;99.90;;;;;;4975299;28;20600;-68
2021/01/21 02:29:42;;;;;;;11.53;5.07;;;4.00;99.90;;;;;;4977246;28;20057;-71
2021/01/21 02:32:32;;;;;;;12.40;5.77;;;4.10;99.90;;;;;;4976981;28;20061;-71
2021/01/21 02:35:04;;;;;;;9.20;5.23;;;4.10;99.90;;;;;;4976020;28;20458;-66
2021/01/21 02:37:31;;;;;;;12.97;5.23;;;4.20;99.90;;;;;;4976679;28;20049;-71
2021/01/21 02:40:00;;;;;;;9.17;4.77;;;4.30;99.90;;;;;;4978930;28;20045;-69
2021/01/21 02:42:27;;;;;;;10.07;4.80;;;4.40;99.90;;;;;;4977276;28;20057;-68
2021/01/21 02:44:54;;;;;;;11.17;5.30;;;4.40;99.90;;;;;;4979563;28;20046;-66
2021/01/21 02:47:23;;;;;;;9.80;4.33;;;4.50;99.90;;;;;;4985591;28;20053;-71
2021/01/21 02:49:52;;;;;;;10.53;4.70;;;4.60;99.90;;;;;;4985972;28;20125;-71
2021/01/21 02:52:28;;;;;;;9.63;4.63;;;4.60;99.90;;;;;;4977841;28;20501;-68
2021/01/21 02:55:09;;;;;;;11.37;4.20;;;4.60;99.90;;;;;;4976889;28;20575;-67
2021/01/21 02:57:43;;;;;;;10.70;5.40;;;4.70;99.90;;;;;;4975514;28;20085;-71
2021/01/21 03:00:12;;;;;;;11.27;5.00;;;4.70;99.90;;;;;;4975938;28;20053;-68
2021/01/21 03:02:43;;;;;;;9.83;4.90;;;4.70;99.90;;;;;;4974577;28;20057;-71
2021/01/21 03:05:12;;;;;;;9.67;4.73;;;4.80;99.90;;;;;;4976572;28;20077;-66
2021/01/21 03:07:41;;;;;;;10.70;4.90;;;4.80;99.90;;;;;;4974858;28;20413;-70
2021/01/21 03:10:09;;;;;;;10.57;4.90;;;4.80;99.90;;;;;;4975788;28;20054;-66
2021/01/21 03:12:36;;;;;;;10.43;4.97;;;4.80;99.90;;;;;;4969025;28;20445;-69
2021/01/21 03:15:07;;;;;;;10.43;4.70;;;4.90;99.90;;;;;;4976187;28;20050;-66
2021/01/21 03:17:34;;;;;;;10.33;4.90;;;4.90;99.90;;;;;;4976339;28;20057;-65
2021/01/21 03:20:00;;;;;;;10.70;5.53;;;4.90;99.90;;;;;;4976263;28;20046;-69
2021/01/21 03:22:28;;;;;;;10.03;4.97;;;5.00;99.90;;;;;;4976647;28;20104;-71
2021/01/21 03:24:56;;;;;;;10.40;5.10;;;5.00;99.90;;;;;;4977704;28;20506;-67
2021/01/21 03:27:22;;;;;;;11.47;5.10;;;5.00;99.90;;;;;;4977836;28;20057;-69
2021/01/21 03:29:49;;;;;;;13.70;6.10;;;5.10;99.90;;;;;;4978301;28;20433;-69
2021/01/21 03:32:16;;;;;;;10.77;4.77;;;5.10;99.90;;;;;;4977402;28;20096;-66
2021/01/21 03:34:43;;;;;;;8.93;4.80;;;5.10;99.90;;;;;;4976143;28;20050;-70
2021/01/21 03:37:09;;;;;;;11.30;5.63;;;5.20;99.90;;;;;;4976818;28;20213;-66
2021/01/21 03:39:36;;;;;;;11.50;5.33;;;5.20;99.90;;;;;;4982124;28;20054;-69
2021/01/21 03:42:04;;;;;;;10.90;5.37;;;5.10;99.90;;;;;;4981727;28;20085;-65
2021/01/21 03:44:31;;;;;;;10.67;5.43;;;5.20;99.90;;;;;;4981213;28;20056;-68
2021/01/21 03:46:58;;;;;;;10.10;4.57;;;5.20;99.90;;;;;;4981431;28;20046;-69
2021/01/21 03:49:25;;;;;;;11.10;5.03;;;5.00;99.90;;;;;;4981239;28;20054;-65
2021/01/21 03:51:52;;;;;;;13.70;5.13;;;5.20;99.90;;;;;;4981764;28;20053;-69
2021/01/21 03:54:19;;;;;;;9.63;4.93;;;5.10;99.90;;;;;;4979539;28;20061;-67
2021/01/21 03:56:46;;;;;;;12.13;5.07;;;5.10;99.90;;;;;;4981485;28;20053;-70
2021/01/21 03:59:14;;;;;;;10.17;4.93;;;5.10;99.90;;;;;;4980992;28;20054;-69
2021/01/21 04:01:41;;;;;;;12.57;5.33;;;5.10;99.90;;;;;;4980381;28;20057;-69
2021/01/21 04:04:08;;;;;;;14.43;5.50;;;5.10;99.90;;;;;;4979094;28;20822;-67
2021/01/21 04:06:34;;;;;;;13.10;5.17;;;5.10;99.90;;;;;;4980588;28;20752;-66
2021/01/21 04:09:02;;;;;;;9.03;4.03;;;5.00;99.90;;;;;;4979162;28;20509;-71
2021/01/21 04:11:28;;;;;;;8.83;4.70;;;5.00;99.90;;;;;;4980497;28;20184;-66
2021/01/21 04:13:56;;;;;;;11.67;5.70;;;5.00;99.90;;;;;;4980666;28;20046;-71
2021/01/21 04:16:24;;;;;;;10.20;5.10;;;5.00;99.90;;;;;;4980969;28;20046;-71
2021/01/21 04:18:51;;;;;;;12.37;5.53;;;5.00;99.90;;;;;;4981593;28;20050;-69
2021/01/21 04:21:17;;;;;;;11.07;5.50;;;5.00;99.90;;;;;;4981835;28;20057;-65
2021/01/21 04:23:44;;;;;;;9.70;4.37;;;5.10;99.90;;;;;;4978823;28;20568;-65
2021/01/21 04:26:11;;;;;;;11.00;4.80;;;5.00;99.90;;;;;;4980332;28;20057;-70
2021/01/21 04:28:41;;;;;;;10.30;4.90;;;4.90;99.90;;;;;;4980264;28;20073;-71
2021/01/21 04:31:08;;;;;;;11.53;4.97;;;5.10;99.90;;;;;;4980025;28;20085;-65
2021/01/21 04:33:35;;;;;;;10.20;4.30;;;5.10;99.90;;;;;;4980800;28;20049;-66
2021/01/21 04:36:02;;;;;;;10.63;5.00;;;5.10;99.90;;;;;;4982376;28;20077;-65
2021/01/21 04:38:28;;;;;;;9.67;5.20;;;5.20;99.90;;;;;;4983403;28;20108;-66
2021/01/21 04:40:57;;;;;;;9.23;4.57;;;5.20;99.90;;;;;;4981648;28;20061;-65
2021/01/21 04:43:24;;;;;;;8.20;4.10;;;5.20;99.90;;;;;;4980291;28;20500;-67
2021/01/21 04:45:50;;;;;;;9.17;4.10;;;5.30;99.90;;;;;;4980186;28;20065;-66
2021/01/21 04:48:17;;;;;;;10.83;4.33;;;5.30;99.90;;;;;;4979839;28;20107;-66
2021/01/21 04:50:46;;;;;;;9.60;4.20;;;5.40;99.90;;;;;;4978849;28;20049;-65
2021/01/21 04:53:13;;;;;;;8.37;3.90;;;5.50;99.90;;;;;;4979660;28;20062;-67
2021/01/21 04:55:46;;;;;;;7.00;3.57;;;5.50;99.90;;;;;;4981265;28;20046;-66
2021/01/21 04:58:17;;;;;;;10.03;4.33;;;5.60;99.90;;;;;;4981260;28;20540;-65
2021/01/21 05:00:44;;;;;;;8.87;4.07;;;5.60;99.90;;;;;;4980815;28;20054;-67
2021/01/21 05:03:13;;;;;;;10.57;4.70;;;5.50;99.90;;;;;;4980050;28;20061;-67
2021/01/21 05:05:40;;;;;;;8.53;4.30;;;5.60;99.90;;;;;;4981274;28;20050;-66
2021/01/21 05:08:08;;;;;;;8.10;4.00;;;5.60;99.90;;;;;;4981685;28;20056;-66
2021/01/21 05:10:35;;;;;;;11.10;4.33;;;5.60;99.90;;;;;;4981613;28;20042;-65
2021/01/21 05:13:02;;;;;;;8.60;4.30;;;5.60;99.90;;;;;;4980060;28;20046;-66
2021/01/21 05:15:28;;;;;;;10.40;4.40;;;5.60;99.90;;;;;;4980246;28;20061;-66
2021/01/21 05:17:55;;;;;;;8.60;4.10;;;5.70;99.90;;;;;;4980561;28;20057;-66
2021/01/21 05:20:23;;;;;;;9.43;4.50;;;5.60;99.90;;;;;;4980029;28;20397;-66
2021/01/21 05:22:55;;;;;;;9.00;4.37;;;5.50;99.90;;;;;;4979323;28;20049;-66
2021/01/21 05:25:23;;;;;;;9.27;4.50;;;5.60;99.90;;;;;;4981389;28;20319;-67
2021/01/21 05:27:49;;;;;;;10.00;4.20;;;5.50;99.90;;;;;;4981891;28;20049;-66
2021/01/21 05:30:18;;;;;;;10.27;4.23;;;5.50;99.90;;;;;;4980667;28;20057;-66
2021/01/21 05:32:45;;;;;;;9.10;4.73;;;5.50;99.90;;;;;;4979152;28;20459;-67
2021/01/21 05:35:15;;;;;;;7.90;3.83;;;5.40;99.90;;;;;;4980095;28;20503;-70
2021/01/21 05:37:43;;;;;;;7.47;3.60;;;5.50;99.90;;;;;;4979382;28;20156;-65
2021/01/21 05:40:12;;;;;;;8.80;4.00;;;5.50;99.90;;;;;;4980013;28;20050;-67
2021/01/21 05:42:40;;;;;;;8.43;3.80;;;5.50;99.90;;;;;;4978540;28;20137;-71
2021/01/21 05:45:08;;;;;;;10.53;4.63;;;5.50;99.90;;;;;;4979562;28;20518;-67
2021/01/21 05:47:36;;;;;;;8.53;4.50;;;5.50;99.90;;;;;;4979326;28;21552;-66
2021/01/21 05:50:04;;;;;;;10.83;4.37;;;5.60;99.90;;;;;;4979005;28;20206;-66
2021/01/21 05:52:31;;;;;;;11.23;4.23;;;5.60;99.90;;;;;;4976206;28;20042;-67
2021/01/21 05:54:59;;;;;;;9.27;5.10;;;5.60;99.90;;;;;;4977701;28;20460;-67
2021/01/21 05:57:26;;;;;;;10.03;4.70;;;5.50;99.90;;;;;;4979768;28;20500;-67
2021/01/21 05:59:54;;;;;;;9.60;4.17;;;5.50;99.90;;;;;;4978347;28;20659;-71
2021/01/21 06:02:22;;;;;;;9.07;4.13;;;5.60;99.90;;;;;;4976350;28;20111;-66
2021/01/21 06:04:49;;;;;;;8.40;4.30;;;5.60;99.90;;;;;;4978603;28;20116;-66
2021/01/21 06:07:22;;;;;;;8.07;3.67;;;5.60;99.90;;;;;;4978784;28;20140;-66
2021/01/21 06:09:48;;;;;;;8.00;3.63;;;5.60;99.90;;;;;;4978406;28;20496;-67
2021/01/21 06:12:15;;;;;;;9.40;4.40;;;5.70;99.90;;;;;;4980713;28;20049;-67
2021/01/21 06:14:42;;;;;;;7.70;4.37;;;5.60;99.90;;;;;;4980333;28;20053;-65
2021/01/21 06:17:09;;;;;;;8.97;3.90;;;5.70;99.90;;;;;;4978391;28;20432;-67
2021/01/21 06:19:48;;;;;;;9.53;5.00;;;5.70;99.90;;;;;;4983339;28;20580;-67
2021/01/21 06:22:18;;;;;;;11.73;4.83;;;5.80;99.90;;;;;;5003020;28;20080;-66
2021/01/21 06:24:46;;;;;;;8.53;4.50;;;5.70;99.90;;;;;;4990629;28;20291;-65
2021/01/21 06:27:15;;;;;;;12.27;5.20;;;5.80;99.90;;;;;;4987566;28;20054;-66
2021/01/21 06:32:47;;;;;;;7.83;3.83;;;5.70;99.90;;;;;;5005194;28;20055;-66
2021/01/21 06:35:19;;;;;;;9.90;5.03;;;5.70;99.90;;;;;;5000907;28;20073;-71
2021/01/21 06:37:52;;;;;;;9.90;4.03;;;5.70;99.90;;;;;;4993705;28;20046;-68
2021/01/21 06:40:22;;;;;;;9.67;4.50;;;5.70;99.90;;;;;;4991057;28;20060;-69
2021/01/21 06:42:58;;;;;;;8.13;4.57;;;5.70;99.90;;;;;;4989686;28;20409;-69
2021/01/21 06:45:25;;;;;;;10.98;4.38;;;5.80;99.90;;;;;;4990208;28;20917;-70
2021/01/21 06:47:55;;;;;;;7.67;3.97;;;5.80;99.90;;;;;;4990540;28;20049;-66
2021/01/21 06:50:26;;;;;;;9.67;3.93;;;5.80;99.90;;;;;;4990294;28;20147;-69
2021/01/21 06:52:53;;;;;;;7.57;3.38;;;5.80;99.90;;;;;;4989010;28;20423;-65
2021/01/21 06:55:20;;;;;;;8.30;3.40;;;5.90;99.90;;;;;;4990122;28;20511;-68
2021/01/21 06:57:47;;;;;;;8.33;4.00;;;6.00;99.90;;;;;;4989650;28;20046;-71
2021/01/21 07:00:16;;;;;;;8.50;3.83;;;6.00;99.90;;;;;;4990586;28;20045;-70
2021/01/21 07:02:46;;;;;;;8.57;3.97;;;6.00;99.90;;;;;;4989892;28;20105;-68
2021/01/21 07:05:16;;;;;;;8.37;3.43;;;6.00;99.90;;;;;;4990097;28;21157;-66
2021/01/21 07:08:07;;;;;;;9.02;3.25;;;6.00;99.90;;;;;;4990513;28;20058;-69
2021/01/21 07:10:41;;;;;;;9.17;3.80;;;6.00;99.90;;;;;;4991530;28;20046;-66
2021/01/21 07:13:11;;;;;;;8.30;3.70;;;6.00;99.90;;;;;;4989732;28;20053;-69
2021/01/21 07:15:44;;;;;;;8.73;3.87;;;6.00;99.90;;;;;;4990629;28;20073;-71
2021/01/21 07:18:17;;;;;;;7.70;4.10;;;6.00;99.90;;;;;;4990609;28;20109;-69
2021/01/21 07:21:10;;;;;;;10.17;3.73;;;6.00;99.90;;;;;;4990190;28;20053;-69
2021/01/21 07:23:43;;;;;;;7.47;3.25;;;6.10;99.90;;;;;;4988647;28;20077;-69
2021/01/21 07:26:34;;;;;;;9.27;3.97;;;6.10;99.90;;;;;;4988953;28;20057;-65
2021/01/21 07:29:21;;;;;;;6.57;2.67;;;6.10;99.90;;;;;;4985182;28;20068;-66
2021/01/21 07:32:09;;;;;;;7.60;3.50;;;6.20;99.90;;;;;;4981329;28;21699;-72
2021/01/21 07:34:47;;;;;;;5.73;3.10;;;6.20;99.90;;;;;;4975773;28;20104;-68
2021/01/21 07:37:17;;;;;;;6.60;3.17;;;6.20;99.90;;;;;;4978451;28;20518;-72
2021/01/21 07:40:05;;;;;;;7.50;3.03;;;6.20;99.90;;;;;;4980403;28;20053;-74
2021/01/21 07:42:52;;;;;;;7.57;3.13;;;6.30;99.90;;;;;;4978374;28;20049;-69
2021/01/21 07:45:27;;;;;;;7.37;3.30;;;6.30;99.90;;;;;;4977993;28;20049;-69
2021/01/21 07:47:55;;;;;;;7.97;3.05;;;6.30;99.90;;;;;;4978673;28;20048;-70
2021/01/21 07:50:43;;;;;;;8.37;3.40;;;6.40;99.90;;;;;;4977183;28;20077;-68
2021/01/21 07:53:24;;;;;;;7.72;2.67;;;6.50;99.90;;;;;;4975349;28;20065;-69
2021/01/21 07:55:51;;;;;;;6.47;2.75;;;6.60;99.90;;;;;;4976525;28;20076;-67
2021/01/21 07:58:20;;;;;;;9.45;3.22;;;6.60;99.90;;;;;;4977200;28;20069;-65
2021/01/21 08:00:48;;;;;;;7.75;2.97;;;6.70;99.90;;;;;;4980447;28;20041;-66
2021/01/21 08:03:15;;;;;;;5.50;2.58;;;6.80;99.90;;;;;;4979712;28;20141;-67
2021/01/21 08:05:42;;;;;;;7.30;2.90;;;6.80;99.90;;;;;;4979922;28;20061;-67
2021/01/21 08:08:09;;;;;;;7.50;2.97;;;6.90;99.90;;;;;;4981126;28;20108;-66
2021/01/21 08:10:37;;;;;;;7.30;2.63;;;6.90;99.90;;;;;;4981597;28;20050;-66
2021/01/21 08:13:05;;;;;;;7.80;2.72;;;7.00;99.90;;;;;;4980112;28;20081;-67
2021/01/21 08:15:33;;;;;;;9.00;3.42;;;7.00;99.90;;;;;;4981867;28;20147;-66
2021/01/21 08:20:36;;;;;;;6.45;2.67;;;7.10;99.90;;;;;;5251178;22;20053;-68
2021/01/21 08:23:04;;;;;;;6.28;2.67;;;7.20;99.90;;;;;;5012377;28;20580;-69
2021/01/21 08:25:31;;;;;;;8.23;2.40;;;7.30;99.90;;;;;;5009789;28;20065;-70
2021/01/21 08:27:59;;;;;;;5.85;2.80;;;7.30;99.90;;;;;;5011929;28;20056;-71
2021/01/21 08:30:27;;;;;;;6.32;2.35;;;7.40;99.90;;;;;;5010016;28;20050;-71
2021/01/21 08:33:01;;;;;;;5.80;2.30;;;7.40;99.90;;;;;;5008471;28;20049;-73
2021/01/21 08:35:31;;;;;;;6.20;2.60;;;7.40;99.90;;;;;;5008115;28;20426;-72
2021/01/21 08:37:59;;;;;;;6.55;2.97;;;7.60;99.90;;;;;;5009491;28;20442;-70
2021/01/21 08:40:27;;;;;;;8.55;2.60;;;7.50;99.90;;;;;;5008164;28;20427;-70
2021/01/21 08:42:55;;;;;;;7.22;2.75;;;7.60;99.90;;;;;;5010059;28;20045;-73
2021/01/21 08:45:29;;;;;;;5.03;2.22;;;7.60;99.90;;;;;;5007864;28;20041;-71
2021/01/21 08:47:56;;;;;;;6.35;2.40;;;7.70;99.90;;;;;;5010287;28;20236;-71
2021/01/21 08:50:23;;;;;;;5.82;2.53;;;7.80;99.90;;;;;;5008981;28;20466;-70
2021/01/21 08:52:57;;;;;;;6.20;2.20;;;7.90;99.90;;;;;;5008738;28;20081;-71
2021/01/21 08:55:43;;;;;;;5.78;2.25;;;8.00;99.90;;;;;;5017935;28;20539;-73
2021/01/21 08:58:11;;;;;;;6.53;2.58;;;8.10;99.90;;;;;;4999647;28;20442;-71
2021/01/21 09:00:40;;;;;;;4.53;2.10;;;8.10;99.90;;;;;;5006391;28;20049;-69
2021/01/21 09:03:07;;;;;;;5.65;2.17;;;8.20;99.90;;;;;;5004496;28;20499;-70
2021/01/21 09:05:34;;;;;;;7.07;2.58;;;8.40;99.90;;;;;;5005152;28;20056;-69
2021/01/21 09:08:06;;;;;;;6.82;2.58;;;8.50;99.90;;;;;;5004686;28;20108;-69
2021/01/21 09:10:42;;;;;;;9.90;2.17;;;8.60;99.90;;;;;;5006018;28;20046;-69
2021/01/21 09:13:09;;;;;;;5.10;2.17;;;8.70;99.90;;;;;;5005191;28;20065;-70
2021/01/21 09:15:56;;;;;;;7.57;2.88;;;8.70;99.90;;;;;;5000763;28;20053;-69
2021/01/21 09:18:47;;;;;;;5.85;2.67;;;8.80;99.90;;;;;;5010103;28;20061;-69
2021/01/21 09:21:14;;;;;;;7.25;2.40;;;9.00;99.90;;;;;;5010220;28;20057;-69
2021/01/21 09:23:41;;;;;;;11.55;2.60;;;9.00;99.90;;;;;;5009735;28;20050;-68
2021/01/21 09:26:12;;;;;;;5.85;2.47;;;9.00;99.90;;;;;;5013546;28;20053;-69
2021/01/21 09:28:54;;;;;;;5.18;2.60;;;8.90;99.90;;;;;;5008926;28;20049;-68
2021/01/21 09:31:22;;;;;;;4.25;2.13;;;8.90;99.90;;;;;;5005616;28;20491;-69
2021/01/21 09:33:52;;;;;;;7.78;2.85;;;8.90;99.90;;;;;;5007086;28;20049;-68
2021/01/21 09:36:19;;;;;;;7.05;2.35;;;8.90;99.90;;;;;;5008947;28;20593;-68
2021/01/21 09:38:46;;;;;;;6.47;2.40;;;8.90;99.90;;;;;;5014657;28;20574;-68
2021/01/21 09:41:12;;;;;;;7.55;2.22;;;8.90;99.90;;;;;;5014395;28;20112;-68
2021/01/21 09:43:41;;;;;;;9.43;3.17;;;8.90;99.90;;;;;;5014009;28;20128;-68
2021/01/21 09:46:10;;;;;;;6.20;2.20;;;8.90;99.90;;;;;;5014715;28;20308;-67
2021/01/21 09:48:38;;;;;;;5.80;2.38;;;8.80;99.90;;;;;;5015404;28;20045;-68
2021/01/21 09:51:04;;;;;;;5.72;2.13;;;9.00;99.90;;;;;;5015408;28;20041;-68
2021/01/21 09:53:31;;;;;;;5.85;2.38;;;9.00;99.90;;;;;;5013726;28;20046;-68
2021/01/21 09:55:57;;;;;;;;;;;9.10;99.90;;;;;;5013556;28;20077;-68
2021/01/21 09:58:24;;;;;;;4.85;1.80;;;9.20;99.90;;;;;;5014577;28;19929;-68
2021/01/21 10:00:51;;;;;;;4.78;2.03;;;9.30;99.90;;;;;;5014526;28;20579;-67
2021/01/21 10:03:18;;;;;;;6.15;1.95;;;9.30;99.90;;;;;;5013030;28;20142;-68
2021/01/21 10:05:46;;;;;;;4.38;2.03;;;9.50;99.90;;;;;;5015639;28;20501;-68
2021/01/21 10:08:12;;;;;;;15.88;3.38;;;9.70;99.90;;;;;;5014954;28;20092;-67
2021/01/21 10:10:38;;;;;;;3.88;1.75;;;9.80;99.90;;;;;;5015153;28;20049;-68
2021/01/21 10:13:05;;;;;;;;;;;10.00;99.90;;;;;;5015167;28;20054;-68
2021/01/21 10:15:34;;;;;;;3.55;1.75;;;10.30;99.90;;;;;;5016004;28;20010;-68
2021/01/21 10:18:01;;;;;;;4.95;2.20;;;11.20;99.90;;;;;;5013504;28;20131;-68
2021/01/21 10:20:27;;;;;;;8.95;1.73;;;11.40;99.90;;;;;;5009094;28;20041;-68
2021/01/21 10:22:54;;;;;;;;;;;11.50;99.90;;;;;;5010331;28;20530;-70
2021/01/21 10:25:21;;;;;;;5.15;1.83;;;11.80;99.90;;;;;;5008377;28;19928;-70
2021/01/21 10:27:48;;;;;;;;;;;11.80;99.90;;;;;;5009089;28;20604;-70
2021/01/21 10:30:15;;;;;;;3.95;1.73;;;11.60;99.90;;;;;;5007585;28;19925;-70
2021/01/21 10:32:42;;;;;;;8.60;2.17;;;11.30;99.90;;;;;;5006691;28;20056;-70
2021/01/21 10:35:09;;;;;;;4.65;1.80;;;11.20;99.90;;;;;;5000068;28;20050;-70
2021/01/21 10:37:36;;;;;;;3.65;1.73;;;11.00;99.90;;;;;;5006888;28;20049;-70
2021/01/21 10:40:04;;;;;;;;;;;11.00;99.90;;;;;;5007319;28;20057;-70
2021/01/21 10:42:30;;;;;;;7.35;2.20;;;10.90;99.90;;;;;;5005593;28;19936;-70
2021/01/21 10:44:57;;;;;;;5.20;1.67;;;11.70;99.90;;;;;;5004622;28;20064;-70
2021/01/21 10:47:23;;;;;;;4.72;1.85;;;12.40;99.90;;;;;;5005994;28;20041;-70
2021/01/21 10:49:50;;;;;;;;;;;13.00;99.90;;;;;;5015378;28;20088;-70
2021/01/21 10:52:17;;;;;;;6.30;1.95;;;12.70;99.90;;;;;;5006010;28;19936;-70
2021/01/21 10:54:43;;;;;;;4.50;1.60;;;12.40;99.90;;;;;;5007444;28;20104;-70
2021/01/21 10:57:11;;;;;;;4.18;1.60;;;12.20;99.90;;;;;;5000963;28;20046;-70
2021/01/21 10:59:37;;;;;;;3.88;1.48;;;11.80;99.90;;;;;;5017303;28;20128;-70
2021/01/21 11:02:03;;;;;;;;;;;11.50;99.90;;;;;;5006584;28;20041;-69
2021/01/21 11:04:30;;;;;;;3.60;1.33;;;11.40;99.90;;;;;;5014794;28;19921;-70
2021/01/21 11:06:57;;;;;;;4.90;1.52;;;11.20;99.90;;;;;;5007030;28;20058;-70
2021/01/21 11:09:35;;;;;;;7.20;2.75;;;11.10;99.90;;;;;;5011723;28;20061;-70
2021/01/21 11:12:02;;;;;;;4.35;1.60;;;11.10;99.90;;;;;;5011058;28;20760;-70
2021/01/21 11:14:29;;;;;;;4.95;2.00;;;11.20;99.90;;;;;;5002340;28;20042;-70
2021/01/21 11:16:56;;;;;;;4.20;1.70;;;11.20;99.90;;;;;;5007483;28;20454;-70
2021/01/21 11:19:22;;;;;;;4.32;1.40;;;11.20;99.90;;;;;;5010208;28;20049;-70
2021/01/21 11:21:51;;;;;;;3.42;1.73;;;11.10;99.90;;;;;;5010909;28;20083;-70
2021/01/21 11:24:18;;;;;;;7.97;1.70;;;11.10;99.90;;;;;;5010879;28;20111;-70
2021/01/21 11:26:44;;;;;;;4.53;1.50;;;11.00;99.90;;;;;;5009784;28;20498;-70
2021/01/21 11:29:11;;;;;;;5.53;1.80;;;11.00;99.90;;;;;;5005642;28;20057;-70
2021/01/21 11:31:38;;;;;;;4.63;1.73;;;11.10;99.90;;;;;;5003792;28;20056;-70
2021/01/21 11:34:05;;;;;;;5.90;2.00;;;11.20;99.90;;;;;;5006620;28;20045;-70
2021/01/21 11:36:31;;;;;;;8.32;1.80;;;11.30;99.90;;;;;;5009734;28;20046;-70
2021/01/21 11:38:58;;;;;;;;;;;11.30;99.90;;;;;;5008145;28;20077;-70
2021/01/21 11:41:24;;;;;;;5.95;2.03;;;11.30;99.90;;;;;;5003389;28;19925;-70
2021/01/21 11:43:50;;;;;;;;;;;11.30;99.90;;;;;;5007390;28;20050;-70
2021/01/21 11:46:17;;;;;;;4.18;1.55;;;11.30;99.90;;;;;;5008940;28;19932;-70
2021/01/21 11:48:45;;;;;;;6.25;1.60;;;11.30;99.90;;;;;;5010090;28;20045;-70
2021/01/21 11:51:11;;;;;;;3.47;1.40;;;11.30;99.90;;;;;;5008261;28;20473;-70
2021/01/21 11:53:38;;;;;;;3.03;1.58;;;11.30;99.90;;;;;;5008187;28;20069;-70
2021/01/21 11:56:05;;;;;;;4.65;1.40;;;11.30;99.90;;;;;;5008832;28;20045;-70
2021/01/21 11:58:31;;;;;;;4.68;1.45;;;11.30;99.90;;;;;;5011165;28;20431;-70
2021/01/21 12:00:59;;;;;;;3.50;1.38;;;11.30;99.90;;;;;;5013210;28;20515;-69
2021/01/21 12:03:26;;;;;;;6.50;1.25;;;11.30;99.90;;;;;;5013557;28;20053;-70
2021/01/21 12:05:53;;;;;;;5.93;1.20;;;11.30;99.90;;;;;;5014322;28;20069;-70
2021/01/21 12:08:20;;;;;;;6.43;1.50;;;11.30;99.90;;;;;;5013167;28;20077;-71
2021/01/21 12:10:48;;;;;;;;;;;11.30;99.90;;;;;;5014016;28;20545;-70
2021/01/21 12:13:14;;;;;;;7.68;1.65;;;11.30;99.90;;;;;;5013451;28;20386;-70
2021/01/21 12:15:41;;;;;;;3.10;1.23;;;11.30;99.90;;;;;;5014824;28;20057;-70
2021/01/21 12:18:08;;;;;;;4.93;1.50;;;11.40;99.90;;;;;;5013297;28;20491;-70
2021/01/21 12:20:34;;;;;;;4.45;1.55;;;11.40;99.90;;;;;;5011949;28;20052;-70
2021/01/21 12:23:01;;;;;;;;;;;11.40;99.90;;;;;;5010485;28;20107;-70
2021/01/21 12:25:28;;;;;;;4.00;1.38;;;11.40;99.90;;;;;;5011655;28;19925;-70
2021/01/21 12:27:54;;;;;;;;;;;11.30;99.90;;;;;;5011312;28;20052;-70
2021/01/21 12:30:21;;;;;;;3.50;1.38;;;11.30;99.90;;;;;;5011152;28;19924;-70
2021/01/21 12:32:48;;;;;;;3.50;1.10;;;11.40;99.90;;;;;;5011161;28;20236;-69
2021/01/21 12:35:15;;;;;;;1.05;0.70;;;11.50;99.90;;;;;;5006227;28;20073;-70
2021/01/21 12:37:41;;;;;;;0.85;0.60;;;11.70;99.90;;;;;;5008673;28;20052;-70
2021/01/21 12:40:10;;;;;;;2.03;0.50;;;11.80;99.90;;;;;;5007765;28;20041;-70
2021/01/21 12:42:37;;;;;;;1.67;0.70;;;11.80;99.90;;;;;;5011000;28;20087;-70
2021/01/21 12:45:04;;;;;;;2.53;0.55;;;11.80;99.90;;;;;;5012860;28;20056;-70
2021/01/21 12:47:31;;;;;;;0.82;0.60;;;12.00;99.90;;;;;;5013818;28;20045;-70
2021/01/21 12:49:57;;;;;;;;;;;12.10;99.90;;;;;;5011985;28;20495;-70
2021/01/21 12:52:23;;;;;;;1.35;0.60;;;12.10;99.90;;;;;;5011788;28;20913;-70
2021/01/21 12:54:50;;;;;;;1.30;0.70;;;12.20;99.90;;;;;;5011381;28;20526;-70
2021/01/21 12:57:19;;;;;;;3.15;0.70;;;12.30;99.90;;;;;;5010210;28;20148;-70
2021/01/21 12:59:45;;;;;;;3.67;0.75;;;12.40;99.90;;;;;;5009215;28;21093;-69
2021/01/21 13:02:15;;;;;;;1.17;0.65;;;12.50;99.90;;;;;;5009709;28;20076;-69
2021/01/21 13:04:42;;;;;;;1.23;0.60;;;12.50;99.90;;;;;;5009513;28;21233;-70
2021/01/21 13:07:08;;;;;;;1.75;0.63;;;12.50;99.90;;;;;;5008640;28;20049;-70
2021/01/21 13:09:35;;;;;;;1.05;0.60;;;12.40;99.90;;;;;;5009402;28;20099;-69